Time;durP1;ratioP1;P1;durP2;ratioP2;P2;SDS_P1;SDS_P2;PMS_P1;PMS_P2;Temp;Humidity;BMP_temperature;BMP_pressure;BME280_temperature;BME280_humidity;BME280_pressure;Samples;Min_cycle;Max_cycle;Signal;HPM_P1;HPM_P2
2021/03/09 00:04:52;;;;;;;73.57;32.03;;;;;;;1.25;50.94;99528.52;251884;1154;115202;-78
2021/03/09 00:09:54;;;;;;;79.87;34.67;;;;;;;1.19;51.12;99537.38;251537;1147;114816;-77
2021/03/09 00:14:57;;;;;;;82.10;34.30;;;;;;;1.10;50.93;99538.38;251620;1154;114898;-71
2021/03/09 00:20:07;;;;;;;80.20;35.20;;;;;;;1.06;51.55;99526.22;250609;1147;115000;-72
2021/03/09 00:25:10;;;;;;;76.30;32.40;;;;;;;0.98;51.26;99532.45;251001;1154;114860;-73
2021/03/09 00:30:13;;;;;;;70.60;32.43;;;;;;;0.86;51.03;99525.66;250827;1147;114779;-73
2021/03/09 00:35:16;;;;;;;81.08;35.05;;;;;;;0.83;51.60;99530.94;251994;1153;114683;-73
2021/03/09 00:40:18;;;;;;;81.95;34.75;;;;;;;0.84;52.07;99525.66;251849;1147;114898;-73
2021/03/09 00:45:20;;;;;;;81.47;34.58;;;;;;;0.84;51.99;99525.66;251641;1154;114729;-73
2021/03/09 00:50:31;;;;;;;88.30;37.40;;;;;;;0.84;52.16;99532.66;251697;1147;114643;-74
2021/03/09 00:55:33;;;;;;;89.20;37.00;;;;;;;0.78;51.66;99533.63;251991;1147;114790;-79
2021/03/09 01:00:35;;;;;;;81.00;35.37;;;;;;;0.73;52.17;99531.95;251912;1147;115530;-74
2021/03/09 01:05:37;;;;;;;94.67;40.20;;;;;;;0.67;51.47;99528.52;251800;1154;114850;-74
2021/03/09 01:10:41;;;;;;;98.43;42.73;;;;;;;0.62;52.31;99526.88;251814;1148;114626;-74
2021/03/09 01:15:43;;;;;;;90.37;40.50;;;;;;;0.61;51.92;99523.39;251881;1154;114931;-72
2021/03/09 01:20:53;;;;;;;99.75;41.40;;;;;;;0.57;52.30;99526.06;251877;1147;114708;-71
2021/03/09 01:25:55;;;;;;;97.95;42.98;;;;;;;0.53;51.76;99522.61;251979;1147;114692;-71
2021/03/09 01:30:57;;;;;;;106.90;44.40;;;;;;;0.55;52.45;99517.38;251830;1147;114561;-71
2021/03/09 01:36:00;;;;;;;101.80;44.10;;;;;;;0.52;52.01;99512.17;251977;1154;115560;-72
2021/03/09 01:41:02;;;;;;;106.50;44.95;;;;;;;0.49;51.80;99513.08;252021;1147;114782;-72
2021/03/09 01:46:05;;;;;;;106.77;45.53;;;;;;;0.43;52.08;99505.30;251737;1154;115230;-77
2021/03/09 01:51:16;;;;;;;110.70;44.73;;;;;;;0.37;52.08;99514.09;251958;1148;115923;-72
2021/03/09 01:56:19;;;;;;;109.23;44.73;;;;;;;0.32;52.03;99517.67;251978;1147;114792;-78
2021/03/09 02:01:22;;;;;;;99.48;42.93;;;;;;;0.28;52.61;99515.98;251898;1147;114906;-78
2021/03/09 02:06:24;;;;;;;105.28;44.45;;;;;;;0.24;52.21;99512.55;251818;1154;114734;-78
2021/03/09 02:12:00;;;;;;;93.05;42.53;;;;;;;0.20;52.25;99510.83;251785;1148;115032;-72
2021/03/09 02:17:08;;;;;;;100.07;41.10;;;;;;;0.16;52.07;99504.77;251157;1154;114759;-72
2021/03/09 02:22:35;;;;;;;108.75;42.43;;;;;;;0.11;52.53;99496.13;251893;1148;115061;-72
2021/03/09 02:27:43;;;;;;;101.73;43.25;;;;;;;0.07;52.70;99507.52;251777;1153;115020;-72
2021/03/09 02:33:05;;;;;;;97.70;42.20;;;;;;;0.07;52.23;99504.91;251603;1146;115137;-72
2021/03/09 02:38:10;;;;;;;101.95;41.93;;;;;;;0.05;52.75;99504.04;251667;1154;114670;-72
2021/03/09 02:43:18;;;;;;;107.95;46.10;;;;;;;0.06;53.06;99508.38;251955;1147;114843;-72
2021/03/09 02:48:22;;;;;;;98.20;44.58;;;;;;;0.10;52.73;99504.87;251817;1154;114976;-73
2021/03/09 02:53:30;;;;;;;108.93;44.43;;;;;;;0.11;52.89;99514.44;251849;1147;114885;-72
2021/03/09 02:58:33;;;;;;;97.40;44.30;;;;;;;0.07;53.12;99512.75;251676;1154;114966;-72
2021/03/09 03:03:40;;;;;;;103.60;43.47;;;;;;;0.04;52.75;99517.16;251789;1146;114850;-72
2021/03/09 03:08:44;;;;;;;102.70;41.80;;;;;;;-0.05;52.50;99513.75;251916;1153;115407;-72
2021/03/09 03:13:49;;;;;;;107.27;43.40;;;;;;;-0.09;52.88;99526.89;251652;1148;115008;-72
2021/03/09 03:18:53;;;;;;;99.37;44.73;;;;;;;-0.12;53.04;99519.07;251823;1153;115086;-72
2021/03/09 03:24:00;;;;;;;103.65;46.95;;;;;;;-0.11;53.08;99518.18;251793;1147;115271;-71
2021/03/09 03:29:06;;;;;;;121.05;48.98;;;;;;;-0.15;53.18;99517.34;251674;1154;115161;-72
2021/03/09 03:34:09;;;;;;;109.77;46.93;;;;;;;-0.17;53.37;99520.86;251987;1147;115191;-78
2021/03/09 03:39:12;;;;;;;111.60;46.50;;;;;;;-0.13;53.46;99523.44;251872;1154;115266;-77
2021/03/09 03:44:15;;;;;;;119.93;46.03;;;;;;;-0.13;53.26;99517.34;251846;1147;115154;-79
2021/03/09 03:49:17;;;;;;;109.00;43.60;;;;;;;-0.16;53.42;99522.61;251937;1154;115852;-78
2021/03/09 03:54:38;;;;;;;110.07;43.27;;;;;;;-0.21;53.26;99529.63;251900;1147;115554;-71
2021/03/09 03:59:42;;;;;;;113.73;42.40;;;;;;;-0.29;53.51;99525.34;250814;1154;115082;-71
2021/03/09 04:04:48;;;;;;;108.05;45.55;;;;;;;-0.35;53.42;99535.86;250182;1148;115329;-72
2021/03/09 04:09:54;;;;;;;111.73;46.50;;;;;;;-0.40;53.91;99534.19;251708;1147;115524;-80
2021/03/09 04:14:58;;;;;;;113.40;45.35;;;;;;;-0.42;53.66;99531.57;250672;1147;115622;-78
2021/03/09 04:20:02;;;;;;;120.33;48.68;;;;;;;-0.42;53.61;99530.72;251080;1147;115892;-79
2021/03/09 04:25:06;;;;;;;117.87;47.73;;;;;;;-0.42;53.89;99530.72;251792;1147;115026;-76
2021/03/09 04:30:10;;;;;;;118.07;51.17;;;;;;;-0.43;54.09;99529.85;251373;1154;115392;-76
2021/03/09 04:35:12;;;;;;;118.43;50.63;;;;;;;-0.37;53.90;99534.16;250756;1154;115015;-78
2021/03/09 04:40:15;;;;;;;124.58;54.40;;;;;;;-0.34;54.05;99536.72;251445;1154;115042;-77
2021/03/09 04:45:18;;;;;;;122.15;53.90;;;;;;;-0.35;54.28;99532.38;251170;1147;116007;-77
2021/03/09 04:50:21;;;;;;;125.37;53.53;;;;;;;-0.38;54.54;99532.41;251613;1154;115349;-78
2021/03/09 04:55:25;;;;;;;133.65;54.15;;;;;;;-0.41;54.29;99532.44;251734;1146;115203;-79
2021/03/09 05:00:28;;;;;;;132.60;55.35;;;;;;;-0.46;54.31;99534.25;251011;1153;115135;-78
2021/03/09 05:05:30;;;;;;;133.47;54.40;;;;;;;-0.51;54.64;99537.77;250773;1153;115275;-79
2021/03/09 05:10:33;;;;;;;127.27;55.47;;;;;;;-0.52;54.88;99535.16;251850;1154;115118;-79
2021/03/09 05:15:35;;;;;;;133.48;56.58;;;;;;;-0.55;54.72;99532.56;251820;1147;115348;-79
2021/03/09 05:20:39;;;;;;;124.87;56.00;;;;;;;-0.56;54.71;99543.91;251774;1153;115163;-79
2021/03/09 05:25:42;;;;;;;134.37;57.37;;;;;;;-0.61;55.05;99545.69;251462;1147;115397;-79
2021/03/09 05:30:44;;;;;;;130.00;53.45;;;;;;;-0.67;54.99;99551.85;251839;1153;114943;-80
2021/03/09 05:35:46;;;;;;;130.40;56.55;;;;;;;-0.61;55.67;99553.52;251687;1148;115262;-78
2021/03/09 05:40:49;;;;;;;134.30;56.10;;;;;;;-0.49;55.31;99546.45;251766;1154;115219;-76
2021/03/09 05:45:54;;;;;;;143.48;56.90;;;;;;;-0.37;55.76;99555.94;250962;1148;115109;-74
2021/03/09 05:50:57;;;;;;;123.97;54.20;;;;;;;-0.31;55.78;99550.63;251718;1153;115425;-74
2021/03/09 05:56:03;;;;;;;112.30;47.03;;;;;;;-0.29;55.16;99550.63;251930;1146;115056;-76
2021/03/09 06:01:05;;;;;;;114.80;51.07;;;;;;;-0.27;55.16;99549.74;251988;1146;115161;-76
2021/03/09 06:06:10;;;;;;;118.80;51.40;;;;;;;-0.20;55.54;99549.66;251934;1147;115486;-75
2021/03/09 06:11:13;;;;;;;125.20;55.40;;;;;;;-0.08;55.30;99554.77;251827;1147;115147;-75
2021/03/09 06:16:15;;;;;;;122.47;52.23;;;;;;;-0.01;55.71;99561.66;251747;1146;116094;-76
2021/03/09 06:21:17;;;;;;;106.50;46.00;;;;;;;0.06;55.29;99563.33;251559;1154;115045;-76
2021/03/09 06:26:38;;;;;;;105.77;45.00;;;;;;;0.12;55.28;99565.02;251688;1147;114846;-75
2021/03/09 06:32:00;;;;;;;106.70;46.45;;;;;;;0.14;55.07;99574.59;251846;1154;114973;-76
2021/03/09 06:37:22;;;;;;;99.10;40.70;;;;;;;0.12;54.78;99581.58;251834;1146;115014;-75
2021/03/09 06:42:30;;;;;;;86.20;38.75;;;;;;;0.14;54.33;99592.91;251186;1153;115100;-75
2021/03/09 06:47:35;;;;;;;82.15;37.30;;;;;;;0.18;54.94;99589.37;251278;1148;115083;-75
2021/03/09 06:52:39;;;;;;;;;;;;;;;0.29;55.11;99601.47;251445;1154;114705;-75
2021/03/09 06:58:01;;;;;;;117.37;47.20;;;;;;;0.34;55.10;99597.03;250214;1147;103059;-77
2021/03/09 07:03:03;;;;;;;104.43;46.93;;;;;;;0.47;54.94;99598.63;251795;1154;115043;-77
2021/03/09 07:08:21;;;;;;;106.83;46.18;;;;;;;0.63;54.74;99600.17;251826;1147;115540;-77
2021/03/09 07:13:25;;;;;;;105.53;46.70;;;;;;;0.78;54.91;99600.84;251739;1154;114966;-77
2021/03/09 07:18:28;;;;;;;111.73;49.63;;;;;;;0.98;55.57;99595.34;251560;1147;115376;-76
2021/03/09 07:23:33;;;;;;;107.53;47.87;;;;;;;1.15;54.94;99598.58;251532;1154;116348;-77
2021/03/09 07:28:41;;;;;;;107.00;47.50;;;;;;;1.33;55.07;99595.69;250667;1147;115155;-75
2021/03/09 07:33:43;;;;;;;97.30;43.05;;;;;;;1.38;54.92;99600.85;251932;1147;114883;-73
2021/03/09 07:38:48;;;;;;;101.37;43.33;;;;;;;1.40;54.52;99604.33;251920;1147;115496;-73
2021/03/09 07:43:50;;;;;;;107.40;44.68;;;;;;;1.47;54.44;99605.95;251769;1154;114863;-74
2021/03/09 07:48:54;;;;;;;85.00;38.73;;;;;;;1.56;54.47;99607.55;251050;1147;115289;-73
2021/03/09 07:54:16;;;;;;;81.65;37.50;;;;;;;1.68;54.57;99601.25;250777;1154;115087;-76
2021/03/09 07:59:18;;;;;;;83.60;36.25;;;;;;;1.78;54.38;99600.20;249791;1154;115477;-75
2021/03/09 08:04:19;;;;;;;80.08;35.83;;;;;;;1.80;53.72;99601.91;251590;1153;115479;-74
2021/03/09 08:09:35;;;;;;;88.80;39.67;;;;;;;1.84;54.04;99602.73;251089;1148;211502;-74
2021/03/09 08:14:37;;;;;;;79.77;35.57;;;;;;;1.88;53.78;99593.90;250381;1154;114972;-73
2021/03/09 08:19:40;;;;;;;85.67;39.50;;;;;;;2.01;54.10;99592.78;251080;1146;114959;-73
2021/03/09 08:24:43;;;;;;;64.93;30.67;;;;;;;2.20;54.37;99589.80;251097;1147;114756;-79
2021/03/09 08:29:47;;;;;;;56.80;26.60;;;;;;;2.34;53.76;99586.03;251591;1146;114923;-74
2021/03/09 08:34:50;;;;;;;55.07;26.67;;;;;;;2.46;53.45;99584.05;251538;1154;115227;-79
2021/03/09 08:40:09;;;;;;;52.05;24.95;;;;;;;2.62;53.54;99576.72;251714;1146;114864;-78
2021/03/09 08:45:52;;;;;;;56.10;26.40;;;;;;;2.75;53.09;99578.16;251929;1146;115092;-78
2021/03/09 08:50:55;;;;;;;38.30;19.23;;;;;;;2.88;53.31;99581.39;251358;1150;114859;-80
2021/03/09 08:56:09;;;;;;;45.43;23.57;;;;;;;2.96;52.36;99571.59;251536;1154;115130;-78
2021/03/09 09:01:22;;;;;;;46.33;22.87;;;;;;;3.02;52.52;99559.17;251593;1148;114729;-78
2021/03/09 09:06:28;;;;;;;44.50;22.00;;;;;;;3.08;52.35;99561.64;250797;1154;114977;-80
2021/03/09 09:11:30;;;;;;;34.18;16.58;;;;;;;3.18;52.24;99567.55;251641;1147;114889;-74
2021/03/09 09:16:33;;;;;;;25.53;12.58;;;;;;;3.34;51.89;99569.83;251768;1146;114935;-77
2021/03/09 09:21:48;;;;;;;20.85;10.60;;;;;;;3.49;51.55;99554.52;251687;1147;114923;-77
2021/03/09 09:27:01;;;;;;;27.33;14.10;;;;;;;3.65;51.27;99551.51;251628;1154;114764;-79
2021/03/09 09:32:03;;;;;;;20.90;11.93;;;;;;;3.68;51.11;99557.55;250646;1146;114877;-77
2021/03/09 09:37:16;;;;;;;25.05;12.33;;;;;;;3.65;50.38;99559.41;251873;1154;115118;-74
2021/03/09 09:42:20;;;;;;;27.40;13.70;;;;;;;3.66;50.32;99550.59;251521;1148;114802;-75
2021/03/09 09:47:23;;;;;;;27.60;14.38;;;;;;;3.63;50.22;99551.53;251834;1154;114804;-75
2021/03/09 09:57:49;;;;;;;20.97;10.23;;;;;;;3.69;48.93;99548.75;251381;1144;109179;-63
2021/03/09 10:03:13;;;;;;;19.50;10.60;;;;;;;3.69;49.37;99550.52;251961;1146;114837;-64
2021/03/09 10:08:34;;;;;;;29.17;14.30;;;;;;;3.77;49.45;99549.44;251912;1146;117079;-63
2021/03/09 10:13:37;;;;;;;41.63;20.55;;;;;;;3.76;50.02;99533.66;251949;1146;114348;-65
2021/03/09 10:18:40;;;;;;;45.45;21.98;;;;;;;3.73;49.86;99542.49;251801;1154;114706;-63
2021/03/09 10:24:00;;;;;;;42.43;18.40;;;;;;;3.70;49.80;99544.34;251970;1146;115388;-63
2021/03/09 10:29:13;;;;;;;33.47;17.70;;;;;;;3.69;50.41;99539.99;251887;1153;114476;-65
2021/03/09 10:34:18;;;;;;;28.10;14.73;;;;;;;3.68;49.84;99535.64;251945;1146;114551;-65
2021/03/09 10:39:22;;;;;;;24.30;12.07;;;;;;;3.65;49.31;99525.19;251983;1153;114694;-64
2021/03/09 10:44:36;;;;;;;26.28;12.00;;;;;;;3.64;49.55;99528.73;251906;1153;114339;-65
2021/03/09 10:49:38;;;;;;;22.93;10.75;;;;;;;3.59;49.27;99526.20;251897;1154;115309;-64
2021/03/09 10:54:41;;;;;;;20.73;10.18;;;;;;;3.64;49.17;99520.84;251914;1153;115432;-65
2021/03/09 10:59:59;;;;;;;21.07;9.60;;;;;;;3.71;49.60;99520.63;251817;1153;114808;-64
2021/03/09 11:05:02;;;;;;;15.68;8.58;;;;;;;3.79;49.64;99512.52;251769;1146;114645;-69
2021/03/09 11:10:06;;;;;;;15.75;8.10;;;;;;;3.82;49.60;99520.34;251995;1146;114326;-71
2021/03/09 11:15:09;;;;;;;16.53;8.28;;;;;;;3.93;49.29;99514.78;251979;1153;114455;-70
2021/03/09 11:20:12;;;;;;;17.33;8.08;;;;;;;3.96;49.44;99510.30;251929;1147;114314;-71
2021/03/09 11:25:14;;;;;;;16.27;7.27;;;;;;;4.06;49.07;99508.27;251929;1153;114380;-70
2021/03/09 11:30:17;;;;;;;15.53;7.50;;;;;;;4.06;48.90;99503.00;251928;1147;115271;-70
2021/03/09 11:35:19;;;;;;;15.77;7.00;;;;;;;4.04;48.51;99491.64;251929;1153;115034;-70
2021/03/09 11:40:22;;;;;;;12.15;7.30;;;;;;;4.07;48.24;99490.70;251926;1146;114695;-70
2021/03/09 11:45:24;;;;;;;13.95;6.85;;;;;;;4.10;48.18;99483.56;251892;1147;114475;-72
2021/03/09 11:50:27;;;;;;;9.78;5.60;;;;;;;4.14;47.74;99485.20;252007;1146;114604;-71
2021/03/09 11:55:29;;;;;;;10.40;5.80;;;;;;;4.16;47.68;99475.50;251939;1146;114591;-72
2021/03/09 12:00:31;;;;;;;10.30;6.30;;;;;;;4.20;47.26;99471.00;251919;1148;114578;-72
2021/03/09 12:05:34;;;;;;;9.80;6.23;;;;;;;4.22;46.91;99466.56;251986;1153;114684;-69
2021/03/09 12:10:36;;;;;;;11.07;6.33;;;;;;;4.24;46.75;99457.69;251841;1147;114295;-70
2021/03/09 12:15:39;;;;;;;16.03;7.40;;;;;;;4.26;46.51;99442.70;251525;1153;114281;-71
2021/03/09 12:20:42;;;;;;;10.90;7.05;;;;;;;4.30;46.55;99438.21;251905;1146;114693;-72
2021/03/09 12:25:44;;;;;;;15.27;7.67;;;;;;;4.35;46.42;99436.31;251806;1146;115013;-72
2021/03/09 12:30:48;;;;;;;13.78;7.53;;;;;;;4.40;46.49;99431.75;251938;1147;115176;-71
2021/03/09 12:35:50;;;;;;;18.55;7.85;;;;;;;4.45;46.01;99432.48;251845;1153;114296;-72
2021/03/09 12:40:52;;;;;;;17.90;9.27;;;;;;;4.48;46.44;99437.67;252022;1146;114685;-71
2021/03/09 12:45:54;;;;;;;17.35;9.28;;;;;;;4.50;46.49;99430.56;251936;1153;114477;-71
2021/03/09 12:50:57;;;;;;;17.47;8.57;;;;;;;4.53;46.72;99426.11;251818;1148;114380;-72
2021/03/09 12:55:59;;;;;;;16.37;9.17;;;;;;;4.56;46.67;99420.75;251880;1153;114522;-72
2021/03/09 13:01:02;;;;;;;22.83;9.68;;;;;;;4.59;46.42;99418.88;251922;1147;114306;-70
2021/03/09 13:06:04;;;;;;;16.80;9.25;;;;;;;4.54;46.05;99420.78;251413;1153;114925;-72
2021/03/09 13:11:07;;;;;;;16.38;8.75;;;;;;;4.47;46.09;99419.25;250136;1146;114851;-74
2021/03/09 13:16:09;;;;;;;21.30;10.40;;;;;;;4.68;48.23;99415.07;251826;1147;114795;-75
2021/03/09 13:21:17;;;;;;;20.83;9.53;;;;;;;4.80;46.69;99411.20;251027;1147;114499;-74
2021/03/09 13:26:21;;;;;;;;;;;;;;;4.76;46.39;99418.34;251890;1153;115690;-74
2021/03/09 13:31:27;;;;;;;13.53;7.67;;;;;;;4.74;46.00;99414.88;250445;1146;103154;-75
2021/03/09 13:36:32;;;;;;;15.65;9.55;;;;;;;4.73;46.37;99406.11;251900;1153;199573;-74
2021/03/09 13:41:35;;;;;;;19.43;9.60;;;;;;;4.70;46.30;99411.48;251945;1146;114487;-75
2021/03/09 13:46:53;;;;;;;17.40;8.67;;;;;;;4.76;45.94;99401.67;251616;1153;114415;-73
2021/03/09 13:52:00;;;;;;;15.35;7.73;;;;;;;4.83;45.80;99406.69;252125;1146;114826;-74
2021/03/09 13:57:22;;;;;;;16.05;7.48;;;;;;;4.88;45.30;99399.47;251447;1152;115592;-75
2021/03/09 14:02:28;;;;;;;12.00;6.55;;;;;;;4.88;45.05;99393.33;251582;1146;115096;-75
2021/03/09 14:07:34;;;;;;;13.13;6.90;;;;;;;4.81;44.44;99394.45;251633;1153;114997;-75
2021/03/09 14:12:53;;;;;;;12.03;7.23;;;;;;;4.70;44.36;99390.39;251839;1146;114619;-76
2021/03/09 14:18:00;;;;;;;12.10;7.90;;;;;;;4.59;43.94;99389.89;251989;1153;114422;-75
2021/03/09 14:23:16;;;;;;;17.23;8.63;;;;;;;4.52;44.86;99377.82;251554;1146;114504;-77
2021/03/09 14:28:25;;;;;;;16.27;8.53;;;;;;;4.55;44.84;99385.59;252107;1153;114818;-76
2021/03/09 14:33:38;;;;;;;12.50;7.80;;;;;;;4.50;44.07;99375.22;252104;1146;114630;-77
2021/03/09 14:38:44;;;;;;;12.70;7.53;;;;;;;4.42;44.63;99374.61;252152;1153;114350;-75
2021/03/09 14:43:58;;;;;;;14.93;8.03;;;;;;;4.35;44.47;99373.08;250619;1146;114876;-76
2021/03/09 14:49:06;;;;;;;16.63;7.90;;;;;;;4.31;44.52;99368.80;250912;1153;115399;-75
2021/03/09 14:54:18;;;;;;;17.40;8.10;;;;;;;4.36;45.05;99371.30;251811;1148;114530;-77
2021/03/09 14:59:21;;;;;;;16.25;7.93;;;;;;;4.39;44.91;99365.94;251382;1148;114390;-76
2021/03/09 15:04:26;;;;;;;17.37;7.70;;;;;;;4.40;45.00;99357.97;251328;1146;114378;-76
2021/03/09 15:09:41;;;;;;;12.03;7.17;;;;;;;4.43;44.64;99352.61;252006;1153;114575;-75
2021/03/09 15:14:49;;;;;;;16.93;7.67;;;;;;;4.43;44.87;99349.97;251981;1146;115543;-77
2021/03/09 15:19:56;;;;;;;15.08;7.98;;;;;;;4.41;44.79;99343.88;251111;1153;114315;-77
2021/03/09 15:25:09;;;;;;;13.65;7.43;;;;;;;4.37;44.75;99344.04;252020;1149;114778;-74
2021/03/09 15:30:28;;;;;;;11.55;6.70;;;;;;;4.29;44.82;99339.02;251316;1146;115569;-76
2021/03/09 15:35:38;;;;;;;12.33;6.93;;;;;;;4.23;44.83;99347.11;251934;1153;114551;-75
2021/03/09 15:40:49;;;;;;;12.73;6.73;;;;;;;4.16;44.72;99340.31;251660;1146;114416;-75
2021/03/09 15:46:27;;;;;;;12.03;6.57;;;;;;;4.05;44.29;99345.06;252167;1153;117259;-75
2021/03/09 15:51:36;;;;;;;;;;;;;;;3.95;44.42;99332.16;250995;1146;115003;-76
2021/03/09 15:56:38;;;;;;;10.40;6.15;;;;;;;3.87;44.56;99336.78;250525;1154;103091;-74
2021/03/09 16:01:41;;;;;;;10.68;6.43;;;;;;;3.79;44.29;99338.79;250803;1146;114522;-76
2021/03/09 16:06:44;;;;;;;13.70;6.50;;;;;;;3.70;44.31;99339.05;249940;1153;114341;-72
2021/03/09 16:11:48;;;;;;;14.03;7.03;;;;;;;3.62;44.58;99338.42;252105;1147;114276;-72
2021/03/09 16:16:50;;;;;;;12.35;6.70;;;;;;;3.58;44.51;99339.43;252278;1153;114312;-72
2021/03/09 16:21:53;;;;;;;13.37;7.33;;;;;;;3.54;44.52;99339.52;251826;1146;114392;-72
2021/03/09 16:26:55;;;;;;;13.15;7.45;;;;;;;3.51;44.63;99341.38;251109;1153;115350;-73
2021/03/09 16:31:58;;;;;;;12.93;7.13;;;;;;;3.47;44.63;99352.90;252086;1146;114235;-72
2021/03/09 16:37:00;;;;;;;14.48;7.48;;;;;;;3.38;44.75;99351.37;251380;1154;114932;-72
2021/03/09 16:42:03;;;;;;;15.30;7.80;;;;;;;3.31;44.88;99360.34;251435;1146;114716;-72
2021/03/09 16:47:06;;;;;;;16.30;8.47;;;;;;;3.26;45.23;99349.06;252060;1153;114199;-72
2021/03/09 16:52:09;;;;;;;13.70;7.05;;;;;;;3.20;45.02;99357.14;251558;1153;114865;-72
2021/03/09 16:57:11;;;;;;;17.43;8.70;;;;;;;3.14;45.50;99359.94;251403;1146;115322;-71
2021/03/09 17:02:24;;;;;;;16.75;8.43;;;;;;;3.07;45.56;99373.23;251668;1154;114453;-71
2021/03/09 17:07:26;;;;;;;15.00;8.70;;;;;;;3.04;45.67;99375.09;252247;1153;114513;-71
2021/03/09 17:12:29;;;;;;;21.33;10.17;;;;;;;2.97;45.80;99384.89;252213;1153;114404;-72
2021/03/09 17:17:31;;;;;;;20.90;10.83;;;;;;;2.95;46.01;99384.06;251848;1146;114479;-72
2021/03/09 17:22:34;;;;;;;23.27;12.00;;;;;;;2.91;45.81;99385.05;251186;1153;115116;-73
2021/03/09 17:27:37;;;;;;;21.95;12.10;;;;;;;2.88;45.84;99387.75;252243;1147;114215;-73
2021/03/09 17:32:48;;;;;;;26.05;14.25;;;;;;;2.86;46.09;99392.20;251001;1154;114643;-74
2021/03/09 17:37:50;;;;;;;25.07;12.53;;;;;;;2.83;46.09;99393.13;252198;1147;114469;-73
2021/03/09 17:42:53;;;;;;;25.53;12.93;;;;;;;2.83;46.35;99400.16;252239;1153;114113;-73
2021/03/09 17:47:57;;;;;;;28.63;12.67;;;;;;;2.84;46.28;99400.11;251819;1146;114610;-72
2021/03/09 17:53:12;;;;;;;23.40;11.43;;;;;;;2.86;46.70;99400.09;252195;1153;117239;-73
2021/03/09 17:58:14;;;;;;;26.33;12.47;;;;;;;2.89;46.65;99404.38;252224;1147;114543;-72
2021/03/09 18:03:17;;;;;;;28.57;12.03;;;;;;;2.89;46.42;99410.52;252138;1153;114329;-74
2021/03/09 18:08:19;;;;;;;26.43;11.30;;;;;;;2.90;46.62;99412.24;251368;1146;114682;-73
2021/03/09 18:13:21;;;;;;;21.58;11.18;;;;;;;2.83;46.73;99408.90;252244;1153;114741;-72
2021/03/09 18:18:24;;;;;;;23.47;11.17;;;;;;;2.76;46.57;99420.47;252242;1146;114612;-72
2021/03/09 18:23:27;;;;;;;21.33;10.67;;;;;;;2.78;46.24;99418.65;250681;1153;114337;-72
2021/03/09 18:28:29;;;;;;;22.03;10.33;;;;;;;2.74;46.65;99414.38;251736;1148;114743;-72
2021/03/09 18:33:31;;;;;;;24.68;11.05;;;;;;;2.72;46.44;99413.56;251389;1154;114949;-75
2021/03/09 18:38:34;;;;;;;26.90;10.83;;;;;;;2.65;46.45;99413.73;252266;1147;114773;-76
2021/03/09 18:43:36;;;;;;;23.00;10.83;;;;;;;2.58;46.05;99416.52;252264;1153;114701;-74
2021/03/09 18:48:38;;;;;;;22.90;10.25;;;;;;;2.55;46.30;99416.59;251648;1149;114400;-74
2021/03/09 18:53:41;;;;;;;22.25;11.13;;;;;;;2.57;46.50;99413.91;252207;1154;115053;-74
2021/03/09 18:58:43;;;;;;;24.60;11.95;;;;;;;2.54;46.30;99419.23;251270;1154;114635;-70
2021/03/09 19:03:50;;;;;;;27.55;11.63;;;;;;;2.51;46.48;99421.94;251989;1153;114757;-74
2021/03/09 19:08:52;;;;;;;25.67;12.33;;;;;;;2.46;46.21;99426.45;251933;1147;115216;-70
2021/03/09 19:13:55;;;;;;;35.10;13.63;;;;;;;2.45;46.34;99424.73;252121;1153;114651;-70
2021/03/09 19:18:57;;;;;;;32.80;13.73;;;;;;;2.42;46.56;99425.66;252210;1146;115019;-70
2021/03/09 19:23:59;;;;;;;32.03;14.73;;;;;;;2.36;46.18;99431.03;252179;1153;114714;-70
2021/03/09 19:29:02;;;;;;;32.40;15.25;;;;;;;2.33;47.05;99437.22;252183;1147;115190;-70
2021/03/09 19:34:11;;;;;;;30.07;14.60;;;;;;;2.31;46.79;99435.52;252207;1153;114862;-70
2021/03/09 19:39:13;;;;;;;34.97;12.97;;;;;;;2.26;46.65;99440.02;252047;1148;114755;-70
2021/03/09 19:44:15;;;;;;;26.88;12.95;;;;;;;2.23;46.73;99440.08;252230;1153;114745;-70
2021/03/09 19:49:18;;;;;;;32.53;14.85;;;;;;;2.17;46.85;99438.44;252016;1149;114575;-69
2021/03/09 19:54:20;;;;;;;35.53;13.43;;;;;;;2.19;47.15;99438.42;252004;1154;114583;-70
2021/03/09 19:59:25;;;;;;;29.38;14.55;;;;;;;2.18;47.34;99436.71;252214;1147;114830;-70
2021/03/09 20:04:33;;;;;;;29.77;14.30;;;;;;;2.10;46.80;99440.33;252078;1153;114519;-70
2021/03/09 20:09:36;;;;;;;32.95;14.58;;;;;;;2.07;47.18;99439.53;252126;1148;114465;-69
2021/03/09 20:14:38;;;;;;;29.55;14.10;;;;;;;2.03;47.33;99435.25;252159;1153;114822;-70
2021/03/09 20:19:40;;;;;;;33.40;15.70;;;;;;;1.98;47.43;99445.86;252061;1146;114875;-71
2021/03/09 20:24:44;;;;;;;32.47;16.60;;;;;;;1.96;47.57;99449.41;251994;1153;115049;-75
2021/03/09 20:29:47;;;;;;;34.78;16.73;;;;;;;1.92;47.55;99445.98;251911;1147;114535;-75
2021/03/09 20:34:57;;;;;;;39.23;18.37;;;;;;;1.86;48.15;99435.60;252186;1153;114493;-70
2021/03/09 20:39:59;;;;;;;41.90;20.00;;;;;;;1.82;48.57;99442.67;252238;1148;115137;-74
2021/03/09 20:45:03;;;;;;;37.80;18.30;;;;;;;1.80;47.89;99447.11;252200;1154;115029;-70
2021/03/09 20:50:14;;;;;;;40.23;19.77;;;;;;;1.78;48.66;99442.78;252228;1147;114393;-70
2021/03/09 20:55:17;;;;;;;36.33;19.37;;;;;;;1.75;48.43;99441.06;252189;1154;114945;-70
2021/03/09 21:00:20;;;;;;;51.58;20.50;;;;;;;1.74;48.92;99433.24;252260;1146;114568;-75
2021/03/09 21:05:23;;;;;;;43.63;21.30;;;;;;;1.74;48.62;99430.62;251508;1153;114499;-76
2021/03/09 21:10:26;;;;;;;47.90;22.13;;;;;;;1.74;49.14;99420.98;252258;1146;114704;-75
2021/03/09 21:15:29;;;;;;;49.85;24.95;;;;;;;1.76;49.32;99428.81;251853;1153;114905;-72
2021/03/09 21:20:32;;;;;;;59.83;28.05;;;;;;;1.75;49.24;99417.45;251924;1146;114953;-74
2021/03/09 21:25:36;;;;;;;68.20;29.00;;;;;;;1.78;49.15;99417.40;252215;1154;114849;-74
2021/03/09 21:30:39;;;;;;;71.95;31.30;;;;;;;1.79;49.19;99413.01;252171;1147;115102;-74
2021/03/09 21:35:44;;;;;;;68.90;30.25;;;;;;;1.79;49.35;99402.52;252176;1154;114343;-74
2021/03/09 21:40:46;;;;;;;67.50;30.45;;;;;;;1.74;49.66;99410.49;252192;1146;114761;-74
2021/03/09 21:45:49;;;;;;;71.77;31.60;;;;;;;1.73;49.48;99400.87;252163;1153;114799;-74
2021/03/09 21:50:51;;;;;;;68.68;29.80;;;;;;;1.73;49.74;99407.88;252135;1147;115102;-74
2021/03/09 21:55:53;;;;;;;75.65;30.80;;;;;;;1.69;49.75;99408.84;252174;1154;114432;-70
2021/03/09 22:00:56;;;;;;;77.07;32.07;;;;;;;1.67;50.15;99414.14;251786;1147;115233;-71
2021/03/09 22:06:02;;;;;;;73.17;33.00;;;;;;;1.63;49.65;99405.47;252170;1153;115264;-71
2021/03/09 22:11:05;;;;;;;66.77;31.00;;;;;;;1.61;50.03;99404.62;252138;1146;114755;-70
2021/03/09 22:16:07;;;;;;;67.90;28.83;;;;;;;1.58;49.74;99402.05;252234;1153;114725;-70
2021/03/09 22:21:10;;;;;;;74.75;32.83;;;;;;;1.54;50.40;99395.15;251996;1146;114773;-70
2021/03/09 22:26:12;;;;;;;74.10;33.50;;;;;;;1.50;49.74;99392.63;252168;1153;114625;-72
2021/03/09 22:31:15;;;;;;;70.15;33.48;;;;;;;1.47;50.05;99390.92;252000;1146;114971;-71
2021/03/09 22:36:32;;;;;;;84.80;35.88;;;;;;;1.42;50.88;99398.85;252133;1154;114816;-71
2021/03/09 22:41:34;;;;;;;81.03;37.50;;;;;;;1.44;50.53;99385.73;252146;1146;114620;-70
2021/03/09 22:46:37;;;;;;;89.50;36.53;;;;;;;1.42;50.44;99387.50;252222;1153;114486;-71
2021/03/09 22:51:39;;;;;;;85.45;36.68;;;;;;;1.38;51.10;99386.70;252160;1146;115590;-71
2021/03/09 22:56:43;;;;;;;97.43;38.83;;;;;;;1.35;50.83;99391.14;252185;1154;115003;-70
2021/03/09 23:01:46;;;;;;;90.87;37.73;;;;;;;1.31;51.50;99381.61;251894;1146;114584;-70
2021/03/09 23:06:56;;;;;;;84.70;36.67;;;;;;;1.26;51.45;99380.82;252179;1153;114686;-71
2021/03/09 23:12:01;;;;;;;81.30;35.70;;;;;;;1.25;51.28;99381.72;251983;1147;114568;-71
2021/03/09 23:17:03;;;;;;;83.15;34.53;;;;;;;1.25;51.28;99379.10;251962;1154;114751;-70